sensor_id;sensor_type;location;lat;lon;timestamp;temperature;humidity
67799;SHT30;54596;43.216;27.904;2023-06-22T00:02:12;20.77;89.30
67799;SHT30;54596;43.216;27.904;2023-06-22T00:04:38;20.72;89.46
67799;SHT30;54596;43.216;27.904;2023-06-22T00:07:03;20.67;89.45
67799;SHT30;54596;43.216;27.904;2023-06-22T00:09:29;20.63;89.58
67799;SHT30;54596;43.216;27.904;2023-06-22T00:11:55;20.61;89.71
67799;SHT30;54596;43.216;27.904;2023-06-22T00:14:20;20.51;89.96
67799;SHT30;54596;43.216;27.904;2023-06-22T00:16:46;20.48;89.98
67799;SHT30;54596;43.216;27.904;2023-06-22T00:19:17;20.41;90.01
67799;SHT30;54596;43.216;27.904;2023-06-22T00:21:44;20.39;90.08
67799;SHT30;54596;43.216;27.904;2023-06-22T00:24:12;20.44;89.89
67799;SHT30;54596;43.216;27.904;2023-06-22T00:26:37;20.44;89.84
67799;SHT30;54596;43.216;27.904;2023-06-22T00:29:03;20.44;89.77
67799;SHT30;54596;43.216;27.904;2023-06-22T00:31:28;20.48;89.60
67799;SHT30;54596;43.216;27.904;2023-06-22T00:33:54;20.50;89.52
67799;SHT30;54596;43.216;27.904;2023-06-22T00:36:19;20.52;89.49
67799;SHT30;54596;43.216;27.904;2023-06-22T00:38:45;20.51;89.43
67799;SHT30;54596;43.216;27.904;2023-06-22T00:41:10;20.51;89.45
67799;SHT30;54596;43.216;27.904;2023-06-22T00:43:36;20.52;89.52
67799;SHT30;54596;43.216;27.904;2023-06-22T00:46:01;20.51;89.76
67799;SHT30;54596;43.216;27.904;2023-06-22T00:48:27;20.48;90.08
67799;SHT30;54596;43.216;27.904;2023-06-22T00:50:53;20.50;90.20
67799;SHT30;54596;43.216;27.904;2023-06-22T00:53:20;20.50;90.29
67799;SHT30;54596;43.216;27.904;2023-06-22T00:55:46;20.51;90.34
67799;SHT30;54596;43.216;27.904;2023-06-22T00:58:13;20.52;90.31
67799;SHT30;54596;43.216;27.904;2023-06-22T01:00:40;20.48;90.31
67799;SHT30;54596;43.216;27.904;2023-06-22T01:03:06;20.47;90.46
67799;SHT30;54596;43.216;27.904;2023-06-22T01:05:36;20.47;90.18
67799;SHT30;54596;43.216;27.904;2023-06-22T01:11:08;20.48;90.34
67799;SHT30;54596;43.216;27.904;2023-06-22T01:16:12;20.44;90.44
67799;SHT30;54596;43.216;27.904;2023-06-22T01:18:42;20.44;90.38
67799;SHT30;54596;43.216;27.904;2023-06-22T01:21:15;20.41;90.21
67799;SHT30;54596;43.216;27.904;2023-06-22T01:23:49;20.40;90.05
67799;SHT30;54596;43.216;27.904;2023-06-22T01:26:22;20.41;89.95
67799;SHT30;54596;43.216;27.904;2023-06-22T01:28:54;20.40;89.76
67799;SHT30;54596;43.216;27.904;2023-06-22T01:31:24;20.40;89.82
67799;SHT30;54596;43.216;27.904;2023-06-22T01:33:53;20.33;89.68
67799;SHT30;54596;43.216;27.904;2023-06-22T01:36:21;20.33;89.87
67799;SHT30;54596;43.216;27.904;2023-06-22T01:38:48;20.27;89.87
67799;SHT30;54596;43.216;27.904;2023-06-22T01:41:15;20.22;89.78
67799;SHT30;54596;43.216;27.904;2023-06-22T01:43:41;20.26;89.58
67799;SHT30;54596;43.216;27.904;2023-06-22T01:46:08;20.27;89.40
67799;SHT30;54596;43.216;27.904;2023-06-22T01:48:34;20.32;89.15
67799;SHT30;54596;43.216;27.904;2023-06-22T01:50:59;20.32;88.97
67799;SHT30;54596;43.216;27.904;2023-06-22T01:53:25;20.36;88.62
67799;SHT30;54596;43.216;27.904;2023-06-22T01:55:51;20.37;88.58
67799;SHT30;54596;43.216;27.904;2023-06-22T01:58:16;20.41;88.23
67799;SHT30;54596;43.216;27.904;2023-06-22T02:00:50;20.39;88.15
67799;SHT30;54596;43.216;27.904;2023-06-22T02:03:22;20.41;88.23
67799;SHT30;54596;43.216;27.904;2023-06-22T02:05:50;20.43;88.20
67799;SHT30;54596;43.216;27.904;2023-06-22T02:08:24;20.43;88.28
67799;SHT30;54596;43.216;27.904;2023-06-22T02:10:52;20.43;88.49
67799;SHT30;54596;43.216;27.904;2023-06-22T02:13:19;20.44;88.69
67799;SHT30;54596;43.216;27.904;2023-06-22T02:15:45;20.44;88.79
67799;SHT30;54596;43.216;27.904;2023-06-22T02:18:12;20.39;88.45
67799;SHT30;54596;43.216;27.904;2023-06-22T02:20:39;20.41;88.31
67799;SHT30;54596;43.216;27.904;2023-06-22T02:23:06;20.43;88.20
67799;SHT30;54596;43.216;27.904;2023-06-22T02:25:33;20.45;88.02
67799;SHT30;54596;43.216;27.904;2023-06-22T02:27:58;20.37;87.98
67799;SHT30;54596;43.216;27.904;2023-06-22T02:30:24;20.36;87.99
67799;SHT30;54596;43.216;27.904;2023-06-22T02:32:49;20.34;87.96
67799;SHT30;54596;43.216;27.904;2023-06-22T02:35:30;20.37;88.00
67799;SHT30;54596;43.216;27.904;2023-06-22T02:38:02;20.39;88.01
67799;SHT30;54596;43.216;27.904;2023-06-22T02:40:29;20.39;88.12
67799;SHT30;54596;43.216;27.904;2023-06-22T02:42:55;20.41;88.15
67799;SHT30;54596;43.216;27.904;2023-06-22T02:45:21;20.43;88.55
67799;SHT30;54596;43.216;27.904;2023-06-22T02:47:46;20.44;88.76
67799;SHT30;54596;43.216;27.904;2023-06-22T02:50:13;20.45;88.71
67799;SHT30;54596;43.216;27.904;2023-06-22T02:52:39;20.50;88.49
67799;SHT30;54596;43.216;27.904;2023-06-22T02:55:05;20.51;88.42
67799;SHT30;54596;43.216;27.904;2023-06-22T02:57:32;20.51;88.23
67799;SHT30;54596;43.216;27.904;2023-06-22T02:59:58;20.54;88.16
67799;SHT30;54596;43.216;27.904;2023-06-22T03:02:23;20.55;88.07
67799;SHT30;54596;43.216;27.904;2023-06-22T03:04:49;20.61;87.90
67799;SHT30;54596;43.216;27.904;2023-06-22T03:07:15;20.60;87.64
67799;SHT30;54596;43.216;27.904;2023-06-22T03:09:43;20.61;87.66
67799;SHT30;54596;43.216;27.904;2023-06-22T03:12:08;20.67;87.67
67799;SHT30;54596;43.216;27.904;2023-06-22T03:14:34;20.65;87.56
67799;SHT30;54596;43.216;27.904;2023-06-22T03:16:59;20.63;87.66
67799;SHT30;54596;43.216;27.904;2023-06-22T03:19:29;20.64;87.73
67799;SHT30;54596;43.216;27.904;2023-06-22T03:21:59;20.68;87.56
67799;SHT30;54596;43.216;27.904;2023-06-22T03:24:25;20.69;87.73
67799;SHT30;54596;43.216;27.904;2023-06-22T03:26:50;20.75;87.55
67799;SHT30;54596;43.216;27.904;2023-06-22T03:29:16;20.78;87.58
67799;SHT30;54596;43.216;27.904;2023-06-22T03:31:41;20.81;87.47
67799;SHT30;54596;43.216;27.904;2023-06-22T03:34:07;20.88;87.55
67799;SHT30;54596;43.216;27.904;2023-06-22T03:36:32;21.05;87.18
67799;SHT30;54596;43.216;27.904;2023-06-22T03:38:58;21.07;86.89
67799;SHT30;54596;43.216;27.904;2023-06-22T03:41:23;21.03;86.59
67799;SHT30;54596;43.216;27.904;2023-06-22T03:43:49;21.13;86.62
67799;SHT30;54596;43.216;27.904;2023-06-22T03:46:15;21.18;86.68
67799;SHT30;54596;43.216;27.904;2023-06-22T03:48:40;21.31;86.70
67799;SHT30;54596;43.216;27.904;2023-06-22T03:51:05;21.37;86.72
67799;SHT30;54596;43.216;27.904;2023-06-22T03:53:31;21.39;86.81
67799;SHT30;54596;43.216;27.904;2023-06-22T03:55:57;21.50;86.30
67799;SHT30;54596;43.216;27.904;2023-06-22T03:58:22;21.51;85.97
67799;SHT30;54596;43.216;27.904;2023-06-22T04:00:50;21.50;85.93
67799;SHT30;54596;43.216;27.904;2023-06-22T04:03:16;21.50;85.74
67799;SHT30;54596;43.216;27.904;2023-06-22T04:05:44;21.57;85.55
67799;SHT30;54596;43.216;27.904;2023-06-22T04:08:09;21.69;85.28
67799;SHT30;54596;43.216;27.904;2023-06-22T04:10:35;21.82;84.57
67799;SHT30;54596;43.216;27.904;2023-06-22T04:13:00;21.96;83.99
67799;SHT30;54596;43.216;27.904;2023-06-22T04:15:26;22.12;83.20
67799;SHT30;54596;43.216;27.904;2023-06-22T04:17:52;22.24;83.18
67799;SHT30;54596;43.216;27.904;2023-06-22T04:20:18;22.34;83.10
67799;SHT30;54596;43.216;27.904;2023-06-22T04:22:43;22.41;83.01
67799;SHT30;54596;43.216;27.904;2023-06-22T04:25:10;22.54;82.42
67799;SHT30;54596;43.216;27.904;2023-06-22T04:27:36;22.62;82.67
67799;SHT30;54596;43.216;27.904;2023-06-22T04:30:08;22.71;83.41
67799;SHT30;54596;43.216;27.904;2023-06-22T04:32:35;22.73;83.00
67799;SHT30;54596;43.216;27.904;2023-06-22T04:35:03;22.89;83.02
67799;SHT30;54596;43.216;27.904;2023-06-22T04:37:33;22.98;82.03
67799;SHT30;54596;43.216;27.904;2023-06-22T04:39:58;23.05;82.10
67799;SHT30;54596;43.216;27.904;2023-06-22T04:42:26;23.28;81.44
67799;SHT30;54596;43.216;27.904;2023-06-22T04:44:52;23.46;80.73
67799;SHT30;54596;43.216;27.904;2023-06-22T04:47:17;23.51;80.61
67799;SHT30;54596;43.216;27.904;2023-06-22T04:49:43;23.57;80.51
67799;SHT30;54596;43.216;27.904;2023-06-22T04:52:11;23.75;80.36
67799;SHT30;54596;43.216;27.904;2023-06-22T04:54:38;23.88;80.06
67799;SHT30;54596;43.216;27.904;2023-06-22T04:57:05;24.03;79.01
67799;SHT30;54596;43.216;27.904;2023-06-22T04:59:35;24.23;78.47
67799;SHT30;54596;43.216;27.904;2023-06-22T05:02:02;24.29;78.03
67799;SHT30;54596;43.216;27.904;2023-06-22T05:04:29;24.40;77.46
67799;SHT30;54596;43.216;27.904;2023-06-22T05:06:59;24.68;76.51
67799;SHT30;54596;43.216;27.904;2023-06-22T05:09:28;24.82;76.26
67799;SHT30;54596;43.216;27.904;2023-06-22T05:11:54;24.99;75.73
67799;SHT30;54596;43.216;27.904;2023-06-22T05:14:21;25.27;75.17
67799;SHT30;54596;43.216;27.904;2023-06-22T05:16:47;25.57;74.58
67799;SHT30;54596;43.216;27.904;2023-06-22T05:19:12;25.78;74.20
67799;SHT30;54596;43.216;27.904;2023-06-22T05:21:38;26.03;73.85
67799;SHT30;54596;43.216;27.904;2023-06-22T05:24:04;26.38;72.68
67799;SHT30;54596;43.216;27.904;2023-06-22T05:26:31;26.72;71.28
67799;SHT30;54596;43.216;27.904;2023-06-22T05:28:57;27.48;69.60
67799;SHT30;54596;43.216;27.904;2023-06-22T05:31:23;28.43;67.41
67799;SHT30;54596;43.216;27.904;2023-06-22T05:33:50;29.80;64.23
67799;SHT30;54596;43.216;27.904;2023-06-22T05:36:16;31.66;59.95
67799;SHT30;54596;43.216;27.904;2023-06-22T05:38:42;32.72;57.55
67799;SHT30;54596;43.216;27.904;2023-06-22T05:41:07;33.61;55.76
67799;SHT30;54596;43.216;27.904;2023-06-22T05:43:33;34.15;53.72
67799;SHT30;54596;43.216;27.904;2023-06-22T05:46:00;34.81;52.85
67799;SHT30;54596;43.216;27.904;2023-06-22T05:48:27;35.31;51.81
67799;SHT30;54596;43.216;27.904;2023-06-22T05:50:53;35.78;51.06
67799;SHT30;54596;43.216;27.904;2023-06-22T05:53:18;36.16;50.81
67799;SHT30;54596;43.216;27.904;2023-06-22T05:55:44;36.55;49.47
67799;SHT30;54596;43.216;27.904;2023-06-22T05:58:09;36.66;49.55
67799;SHT30;54596;43.216;27.904;2023-06-22T06:00:35;36.68;49.11
67799;SHT30;54596;43.216;27.904;2023-06-22T06:03:01;36.70;48.96
67799;SHT30;54596;43.216;27.904;2023-06-22T06:05:33;36.64;48.73
67799;SHT30;54596;43.216;27.904;2023-06-22T06:08:04;36.39;49.33
67799;SHT30;54596;43.216;27.904;2023-06-22T06:10:30;36.06;50.30
67799;SHT30;54596;43.216;27.904;2023-06-22T06:12:56;35.84;50.06
67799;SHT30;54596;43.216;27.904;2023-06-22T06:15:22;35.43;50.84
67799;SHT30;54596;43.216;27.904;2023-06-22T06:17:51;35.57;50.52
67799;SHT30;54596;43.216;27.904;2023-06-22T06:20:22;35.41;50.74
67799;SHT30;54596;43.216;27.904;2023-06-22T06:22:48;35.12;51.09
67799;SHT30;54596;43.216;27.904;2023-06-22T06:25:14;34.91;51.51
67799;SHT30;54596;43.216;27.904;2023-06-22T06:27:45;34.98;51.28
67799;SHT30;54596;43.216;27.904;2023-06-22T06:30:11;35.33;50.84
67799;SHT30;54596;43.216;27.904;2023-06-22T06:32:37;35.64;50.23
67799;SHT30;54596;43.216;27.904;2023-06-22T06:35:06;36.05;49.34
67799;SHT30;54596;43.216;27.904;2023-06-22T06:37:31;36.85;48.63
67799;SHT30;54596;43.216;27.904;2023-06-22T06:39:57;37.30;47.07
67799;SHT30;54596;43.216;27.904;2023-06-22T06:42:22;38.13;46.11
67799;SHT30;54596;43.216;27.904;2023-06-22T06:44:49;38.85;45.09
67799;SHT30;54596;43.216;27.904;2023-06-22T06:47:15;39.29;44.42
67799;SHT30;54596;43.216;27.904;2023-06-22T06:49:42;39.29;44.08
67799;SHT30;54596;43.216;27.904;2023-06-22T06:52:08;39.54;43.37
67799;SHT30;54596;43.216;27.904;2023-06-22T06:54:33;39.88;41.66
67799;SHT30;54596;43.216;27.904;2023-06-22T06:56:59;40.01;41.28
67799;SHT30;54596;43.216;27.904;2023-06-22T06:59:24;40.20;41.07
67799;SHT30;54596;43.216;27.904;2023-06-22T07:01:50;40.54;41.63
67799;SHT30;54596;43.216;27.904;2023-06-22T07:04:15;40.63;41.20
67799;SHT30;54596;43.216;27.904;2023-06-22T07:06:41;40.95;41.30
67799;SHT30;54596;43.216;27.904;2023-06-22T07:09:07;40.91;41.00
67799;SHT30;54596;43.216;27.904;2023-06-22T07:11:32;40.68;41.77
67799;SHT30;54596;43.216;27.904;2023-06-22T07:13:58;38.92;43.32
67799;SHT30;54596;43.216;27.904;2023-06-22T07:16:25;38.70;44.09
67799;SHT30;54596;43.216;27.904;2023-06-22T07:18:53;37.77;45.47
67799;SHT30;54596;43.216;27.904;2023-06-22T07:21:18;38.70;44.13
67799;SHT30;54596;43.216;27.904;2023-06-22T07:23:44;37.63;45.35
67799;SHT30;54596;43.216;27.904;2023-06-22T07:26:09;37.72;45.31
67799;SHT30;54596;43.216;27.904;2023-06-22T07:28:34;38.79;43.52
67799;SHT30;54596;43.216;27.904;2023-06-22T07:31:03;39.13;43.03
67799;SHT30;54596;43.216;27.904;2023-06-22T07:33:29;39.39;42.20
67799;SHT30;54596;43.216;27.904;2023-06-22T07:35:55;39.80;40.88
67799;SHT30;54596;43.216;27.904;2023-06-22T07:38:20;39.60;41.57
67799;SHT30;54596;43.216;27.904;2023-06-22T07:40:47;40.23;41.02
67799;SHT30;54596;43.216;27.904;2023-06-22T07:43:12;40.44;39.84
67799;SHT30;54596;43.216;27.904;2023-06-22T07:45:38;40.70;39.48
67799;SHT30;54596;43.216;27.904;2023-06-22T07:48:06;40.20;40.48
67799;SHT30;54596;43.216;27.904;2023-06-22T07:50:32;39.43;40.55
67799;SHT30;54596;43.216;27.904;2023-06-22T07:52:57;38.54;41.56
67799;SHT30;54596;43.216;27.904;2023-06-22T07:55:22;38.04;42.16
67799;SHT30;54596;43.216;27.904;2023-06-22T07:57:49;38.58;41.94
67799;SHT30;54596;43.216;27.904;2023-06-22T08:00:14;39.35;41.09
67799;SHT30;54596;43.216;27.904;2023-06-22T08:02:41;38.15;42.90
67799;SHT30;54596;43.216;27.904;2023-06-22T08:05:08;37.95;43.61
67799;SHT30;54596;43.216;27.904;2023-06-22T08:07:37;38.19;43.58
67799;SHT30;54596;43.216;27.904;2023-06-22T08:10:10;37.08;45.50
67799;SHT30;54596;43.216;27.904;2023-06-22T08:12:36;35.59;48.19
67799;SHT30;54596;43.216;27.904;2023-06-22T08:15:01;34.43;49.36
67799;SHT30;54596;43.216;27.904;2023-06-22T08:17:27;33.59;50.94
67799;SHT30;54596;43.216;27.904;2023-06-22T08:19:52;33.35;52.06
67799;SHT30;54596;43.216;27.904;2023-06-22T08:22:18;33.12;52.73
67799;SHT30;54596;43.216;27.904;2023-06-22T08:24:44;33.44;52.72
67799;SHT30;54596;43.216;27.904;2023-06-22T08:27:10;33.33;52.78
67799;SHT30;54596;43.216;27.904;2023-06-22T08:29:40;33.62;52.70
67799;SHT30;54596;43.216;27.904;2023-06-22T08:32:09;33.50;52.87
67799;SHT30;54596;43.216;27.904;2023-06-22T08:34:34;32.58;54.30
67799;SHT30;54596;43.216;27.904;2023-06-22T08:37:00;32.20;54.77
67799;SHT30;54596;43.216;27.904;2023-06-22T08:39:26;31.41;56.39
67799;SHT30;54596;43.216;27.904;2023-06-22T08:41:52;31.58;56.34
67799;SHT30;54596;43.216;27.904;2023-06-22T08:44:18;31.45;56.37
67799;SHT30;54596;43.216;27.904;2023-06-22T08:46:45;31.65;56.58
67799;SHT30;54596;43.216;27.904;2023-06-22T08:49:10;31.35;56.80
67799;SHT30;54596;43.216;27.904;2023-06-22T08:51:36;31.38;56.92
67799;SHT30;54596;43.216;27.904;2023-06-22T08:54:01;31.04;57.15
67799;SHT30;54596;43.216;27.904;2023-06-22T08:56:27;30.27;59.23
67799;SHT30;54596;43.216;27.904;2023-06-22T08:58:53;29.55;60.50
67799;SHT30;54596;43.216;27.904;2023-06-22T09:01:18;29.21;61.38
67799;SHT30;54596;43.216;27.904;2023-06-22T09:03:45;29.35;61.54
67799;SHT30;54596;43.216;27.904;2023-06-22T09:06:22;29.07;61.37
67799;SHT30;54596;43.216;27.904;2023-06-22T09:08:47;29.03;62.26
67799;SHT30;54596;43.216;27.904;2023-06-22T09:11:14;29.14;62.46
67799;SHT30;54596;43.216;27.904;2023-06-22T09:13:39;29.34;61.75
67799;SHT30;54596;43.216;27.904;2023-06-22T09:16:05;29.26;61.89
67799;SHT30;54596;43.216;27.904;2023-06-22T09:18:30;29.69;61.61
67799;SHT30;54596;43.216;27.904;2023-06-22T09:20:56;29.83;60.81
67799;SHT30;54596;43.216;27.904;2023-06-22T09:23:21;29.52;61.80
67799;SHT30;54596;43.216;27.904;2023-06-22T09:25:47;29.66;62.12
67799;SHT30;54596;43.216;27.904;2023-06-22T09:28:14;29.68;62.32
67799;SHT30;54596;43.216;27.904;2023-06-22T09:30:39;29.34;63.89
67799;SHT30;54596;43.216;27.904;2023-06-22T09:33:05;29.03;64.88
67799;SHT30;54596;43.216;27.904;2023-06-22T09:35:30;28.64;66.41
67799;SHT30;54596;43.216;27.904;2023-06-22T09:37:56;28.66;66.66
67799;SHT30;54596;43.216;27.904;2023-06-22T09:40:21;28.31;67.89
67799;SHT30;54596;43.216;27.904;2023-06-22T09:42:47;27.79;68.94
67799;SHT30;54596;43.216;27.904;2023-06-22T09:45:12;27.63;70.28
67799;SHT30;54596;43.216;27.904;2023-06-22T09:47:38;27.92;70.38
67799;SHT30;54596;43.216;27.904;2023-06-22T09:50:04;28.10;70.40
67799;SHT30;54596;43.216;27.904;2023-06-22T09:52:30;28.00;70.50
67799;SHT30;54596;43.216;27.904;2023-06-22T09:54:55;28.13;69.45
67799;SHT30;54596;43.216;27.904;2023-06-22T09:57:21;28.25;69.86
67799;SHT30;54596;43.216;27.904;2023-06-22T09:59:46;28.37;68.44
67799;SHT30;54596;43.216;27.904;2023-06-22T10:02:12;28.13;67.05
67799;SHT30;54596;43.216;27.904;2023-06-22T10:04:38;28.30;66.45
67799;SHT30;54596;43.216;27.904;2023-06-22T10:07:05;28.31;68.37
67799;SHT30;54596;43.216;27.904;2023-06-22T10:09:31;28.45;67.99
67799;SHT30;54596;43.216;27.904;2023-06-22T10:11:56;28.45;66.42
67799;SHT30;54596;43.216;27.904;2023-06-22T10:14:22;27.99;67.30
67799;SHT30;54596;43.216;27.904;2023-06-22T10:16:49;27.73;67.95
67799;SHT30;54596;43.216;27.904;2023-06-22T10:19:15;27.59;67.84
67799;SHT30;54596;43.216;27.904;2023-06-22T10:21:40;27.69;67.90
67799;SHT30;54596;43.216;27.904;2023-06-22T10:24:06;27.58;67.06
67799;SHT30;54596;43.216;27.904;2023-06-22T10:26:35;27.71;66.88
67799;SHT30;54596;43.216;27.904;2023-06-22T10:29:04;27.93;66.33
67799;SHT30;54596;43.216;27.904;2023-06-22T10:31:29;27.90;66.27
67799;SHT30;54596;43.216;27.904;2023-06-22T10:33:55;27.73;64.56
67799;SHT30;54596;43.216;27.904;2023-06-22T10:36:22;27.84;66.17
67799;SHT30;54596;43.216;27.904;2023-06-22T10:38:48;27.92;66.74
67799;SHT30;54596;43.216;27.904;2023-06-22T10:41:14;27.72;66.88
67799;SHT30;54596;43.216;27.904;2023-06-22T10:43:39;27.58;68.72
67799;SHT30;54596;43.216;27.904;2023-06-22T10:46:06;27.59;69.42
67799;SHT30;54596;43.216;27.904;2023-06-22T10:48:31;27.30;72.11
67799;SHT30;54596;43.216;27.904;2023-06-22T10:50:57;26.99;73.84
67799;SHT30;54596;43.216;27.904;2023-06-22T10:53:22;26.89;74.66
67799;SHT30;54596;43.216;27.904;2023-06-22T10:55:48;26.98;74.82
67799;SHT30;54596;43.216;27.904;2023-06-22T10:58:13;26.72;74.69
67799;SHT30;54596;43.216;27.904;2023-06-22T11:00:39;26.74;75.46
67799;SHT30;54596;43.216;27.904;2023-06-22T11:03:05;26.61;75.50
67799;SHT30;54596;43.216;27.904;2023-06-22T11:05:31;26.64;75.91
67799;SHT30;54596;43.216;27.904;2023-06-22T11:07:57;26.64;75.84
67799;SHT30;54596;43.216;27.904;2023-06-22T11:10:22;26.85;74.67
67799;SHT30;54596;43.216;27.904;2023-06-22T11:12:47;26.76;74.53
67799;SHT30;54596;43.216;27.904;2023-06-22T11:15:13;26.51;75.70
67799;SHT30;54596;43.216;27.904;2023-06-22T11:17:38;26.34;76.27
67799;SHT30;54596;43.216;27.904;2023-06-22T11:20:05;26.34;76.41
67799;SHT30;54596;43.216;27.904;2023-06-22T11:22:40;26.20;77.67
67799;SHT30;54596;43.216;27.904;2023-06-22T11:25:06;26.23;77.77
67799;SHT30;54596;43.216;27.904;2023-06-22T11:27:32;26.19;78.35
67799;SHT30;54596;43.216;27.904;2023-06-22T11:29:57;26.29;79.24
67799;SHT30;54596;43.216;27.904;2023-06-22T11:32:23;26.55;78.83
67799;SHT30;54596;43.216;27.904;2023-06-22T11:34:49;26.45;79.39
67799;SHT30;54596;43.216;27.904;2023-06-22T11:37:15;26.43;79.58
67799;SHT30;54596;43.216;27.904;2023-06-22T11:39:41;26.62;79.28
67799;SHT30;54596;43.216;27.904;2023-06-22T11:42:07;26.65;78.98
67799;SHT30;54596;43.216;27.904;2023-06-22T11:44:33;26.54;79.50
67799;SHT30;54596;43.216;27.904;2023-06-22T11:46:58;26.44;79.01
67799;SHT30;54596;43.216;27.904;2023-06-22T11:49:26;26.12;80.07
67799;SHT30;54596;43.216;27.904;2023-06-22T11:51:52;26.12;79.43
67799;SHT30;54596;43.216;27.904;2023-06-22T11:54:17;26.02;78.74
67799;SHT30;54596;43.216;27.904;2023-06-22T11:56:43;26.02;79.19
67799;SHT30;54596;43.216;27.904;2023-06-22T11:59:08;26.10;80.01
67799;SHT30;54596;43.216;27.904;2023-06-22T12:01:33;26.14;79.27
67799;SHT30;54596;43.216;27.904;2023-06-22T12:03:59;25.93;80.61
67799;SHT30;54596;43.216;27.904;2023-06-22T12:06:24;25.95;81.53
67799;SHT30;54596;43.216;27.904;2023-06-22T12:08:50;25.74;80.32
67799;SHT30;54596;43.216;27.904;2023-06-22T12:11:15;25.58;80.40
67799;SHT30;54596;43.216;27.904;2023-06-22T12:13:41;25.68;82.20
67799;SHT30;54596;43.216;27.904;2023-06-22T12:16:06;25.72;82.08
67799;SHT30;54596;43.216;27.904;2023-06-22T12:18:32;25.74;82.53
67799;SHT30;54596;43.216;27.904;2023-06-22T12:20:58;25.69;82.52
67799;SHT30;54596;43.216;27.904;2023-06-22T12:23:23;25.65;82.69
67799;SHT30;54596;43.216;27.904;2023-06-22T12:25:49;25.76;82.93
67799;SHT30;54596;43.216;27.904;2023-06-22T12:28:14;25.85;81.30
67799;SHT30;54596;43.216;27.904;2023-06-22T12:30:40;25.69;82.61
67799;SHT30;54596;43.216;27.904;2023-06-22T12:33:05;25.64;83.11
67799;SHT30;54596;43.216;27.904;2023-06-22T12:35:31;25.75;82.23
67799;SHT30;54596;43.216;27.904;2023-06-22T12:37:56;25.92;80.33
67799;SHT30;54596;43.216;27.904;2023-06-22T12:40:22;25.95;78.07
67799;SHT30;54596;43.216;27.904;2023-06-22T12:42:47;26.03;78.82
67799;SHT30;54596;43.216;27.904;2023-06-22T12:45:13;26.00;77.33
67799;SHT30;54596;43.216;27.904;2023-06-22T12:47:38;25.97;76.06
67799;SHT30;54596;43.216;27.904;2023-06-22T12:50:04;25.89;77.96
67799;SHT30;54596;43.216;27.904;2023-06-22T12:52:30;26.07;78.76
67799;SHT30;54596;43.216;27.904;2023-06-22T12:54:57;25.99;80.62
67799;SHT30;54596;43.216;27.904;2023-06-22T12:57:22;25.96;78.12
67799;SHT30;54596;43.216;27.904;2023-06-22T12:59:49;25.92;79.43
67799;SHT30;54596;43.216;27.904;2023-06-22T13:02:14;25.79;79.81
67799;SHT30;54596;43.216;27.904;2023-06-22T13:04:40;25.86;79.37
67799;SHT30;54596;43.216;27.904;2023-06-22T13:07:05;25.82;78.33
67799;SHT30;54596;43.216;27.904;2023-06-22T13:09:31;25.92;77.89
67799;SHT30;54596;43.216;27.904;2023-06-22T13:11:56;26.00;78.26
67799;SHT30;54596;43.216;27.904;2023-06-22T13:14:21;25.99;76.93
67799;SHT30;54596;43.216;27.904;2023-06-22T13:16:47;26.10;77.30
67799;SHT30;54596;43.216;27.904;2023-06-22T13:19:12;26.10;76.83
67799;SHT30;54596;43.216;27.904;2023-06-22T13:21:38;26.21;76.74
67799;SHT30;54596;43.216;27.904;2023-06-22T13:24:04;26.03;73.36
67799;SHT30;54596;43.216;27.904;2023-06-22T13:26:31;25.92;72.86
67799;SHT30;54596;43.216;27.904;2023-06-22T13:28:57;26.04;74.02
67799;SHT30;54596;43.216;27.904;2023-06-22T13:31:22;25.99;74.05
67799;SHT30;54596;43.216;27.904;2023-06-22T13:33:48;26.06;74.44
67799;SHT30;54596;43.216;27.904;2023-06-22T13:36:14;26.06;73.91
67799;SHT30;54596;43.216;27.904;2023-06-22T13:38:40;26.04;74.27
67799;SHT30;54596;43.216;27.904;2023-06-22T13:41:05;26.07;73.81
67799;SHT30;54596;43.216;27.904;2023-06-22T13:43:31;26.12;73.58
67799;SHT30;54596;43.216;27.904;2023-06-22T13:45:57;26.00;73.42
67799;SHT30;54596;43.216;27.904;2023-06-22T13:48:23;25.97;73.80
67799;SHT30;54596;43.216;27.904;2023-06-22T13:50:52;25.97;74.72
67799;SHT30;54596;43.216;27.904;2023-06-22T13:53:18;25.96;75.24
67799;SHT30;54596;43.216;27.904;2023-06-22T13:55:43;25.85;74.38
67799;SHT30;54596;43.216;27.904;2023-06-22T13:58:09;25.84;74.08
67799;SHT30;54596;43.216;27.904;2023-06-22T14:00:34;25.78;72.96
67799;SHT30;54596;43.216;27.904;2023-06-22T14:02:59;25.75;74.69
67799;SHT30;54596;43.216;27.904;2023-06-22T14:05:25;25.81;74.42
67799;SHT30;54596;43.216;27.904;2023-06-22T14:07:51;25.81;75.65
67799;SHT30;54596;43.216;27.904;2023-06-22T14:10:17;25.75;75.49
67799;SHT30;54596;43.216;27.904;2023-06-22T14:12:42;25.74;75.63
67799;SHT30;54596;43.216;27.904;2023-06-22T14:15:08;25.71;75.64
67799;SHT30;54596;43.216;27.904;2023-06-22T14:17:33;25.69;76.10
67799;SHT30;54596;43.216;27.904;2023-06-22T14:19:59;25.61;75.85
67799;SHT30;54596;43.216;27.904;2023-06-22T14:22:24;25.69;76.85
67799;SHT30;54596;43.216;27.904;2023-06-22T14:24:52;25.74;76.98
67799;SHT30;54596;43.216;27.904;2023-06-22T14:27:17;25.68;77.98
67799;SHT30;54596;43.216;27.904;2023-06-22T14:29:43;25.75;77.70
67799;SHT30;54596;43.216;27.904;2023-06-22T14:32:08;25.79;77.63
67799;SHT30;54596;43.216;27.904;2023-06-22T14:34:34;25.74;77.74
67799;SHT30;54596;43.216;27.904;2023-06-22T14:37:06;25.67;78.45
67799;SHT30;54596;43.216;27.904;2023-06-22T14:39:33;25.57;79.08
67799;SHT30;54596;43.216;27.904;2023-06-22T14:41:59;25.52;80.11
67799;SHT30;54596;43.216;27.904;2023-06-22T14:44:28;25.50;80.30
67799;SHT30;54596;43.216;27.904;2023-06-22T14:46:55;25.38;79.39
67799;SHT30;54596;43.216;27.904;2023-06-22T14:49:20;25.40;79.48
67799;SHT30;54596;43.216;27.904;2023-06-22T14:51:47;25.33;78.97
67799;SHT30;54596;43.216;27.904;2023-06-22T14:54:12;25.23;80.06
67799;SHT30;54596;43.216;27.904;2023-06-22T14:56:38;25.24;78.80
67799;SHT30;54596;43.216;27.904;2023-06-22T14:59:05;25.28;78.83
67799;SHT30;54596;43.216;27.904;2023-06-22T15:01:30;25.38;78.84
67799;SHT30;54596;43.216;27.904;2023-06-22T15:03:56;25.44;77.68
67799;SHT30;54596;43.216;27.904;2023-06-22T15:06:22;25.35;79.69
67799;SHT30;54596;43.216;27.904;2023-06-22T15:08:47;25.41;79.77
67799;SHT30;54596;43.216;27.904;2023-06-22T15:11:13;25.27;78.48
67799;SHT30;54596;43.216;27.904;2023-06-22T15:13:39;25.27;78.83
67799;SHT30;54596;43.216;27.904;2023-06-22T15:16:05;25.30;79.79